createdAt,value
2022-10-29T00:00:56.014Z,5.97
2022-10-29T00:03:24.581Z,7.07
2022-10-29T00:05:56.799Z,7.38
2022-10-29T00:08:25.122Z,8.88
2022-10-29T00:10:53.408Z,10.13
2022-10-29T00:13:21.947Z,7.18
2022-10-29T00:15:50.258Z,5.72
2022-10-29T00:18:19.851Z,8.52
2022-10-29T00:20:49.653Z,4.00
2022-10-29T00:23:18.013Z,7.95
2022-10-29T00:25:46.168Z,5.18
2022-10-29T00:28:14.403Z,5.97
2022-10-29T00:30:42.679Z,7.25
2022-10-29T00:33:10.942Z,6.38
2022-10-29T00:35:40.755Z,5.28
2022-10-29T00:38:08.995Z,7.43
2022-10-29T00:40:38.025Z,6.22
2022-10-29T00:43:15.762Z,6.50
2022-10-29T00:45:47.099Z,9.13
2022-10-29T00:48:15.344Z,8.77
2022-10-29T00:50:45.215Z,6.50
2022-10-29T00:53:13.863Z,8.07
2022-10-29T00:55:42.429Z,6.63
2022-10-29T00:58:12.101Z,5.78
2022-10-29T01:00:40.745Z,6.10
2022-10-29T01:03:09.435Z,7.00
2022-10-29T01:05:38.323Z,6.30
2022-10-29T01:08:08.260Z,7.82
2022-10-29T01:10:42.042Z,7.55
2022-10-29T01:15:56.286Z,6.60
2022-10-29T01:18:26.611Z,5.68
2022-10-29T01:21:19.078Z,7.38
2022-10-29T01:24:08.240Z,8.68
2022-10-29T01:26:58.580Z,6.63
2022-10-29T01:29:35.776Z,7.30
2022-10-29T01:32:08.538Z,7.82
2022-10-29T01:34:40.885Z,6.63
2022-10-29T01:37:15.616Z,5.85
2022-10-29T01:39:46.491Z,7.38
2022-10-29T01:42:19.360Z,7.70
2022-10-29T01:44:49.877Z,6.28
2022-10-29T01:47:20.781Z,4.68
2022-10-29T01:49:51.436Z,5.78
2022-10-29T01:52:21.375Z,7.75
2022-10-29T01:54:50.174Z,5.85
2022-10-29T01:57:29.234Z,5.47
2022-10-29T01:59:58.863Z,5.18
2022-10-29T02:02:32.567Z,4.65
2022-10-29T02:05:04.574Z,5.68
2022-10-29T02:07:38.511Z,3.78
2022-10-29T02:10:10.621Z,5.88
2022-10-29T02:12:42.060Z,5.80
2022-10-29T02:15:12.241Z,5.43
2022-10-29T02:17:42.024Z,4.93
2022-10-29T02:20:11.683Z,5.78
2022-10-29T02:22:40.631Z,7.30
2022-10-29T02:25:09.629Z,8.85
2022-10-29T02:27:38.069Z,5.75
2022-10-29T02:30:06.910Z,6.70
2022-10-29T02:32:35.247Z,7.60
2022-10-29T02:35:04.902Z,6.63
2022-10-29T02:37:33.188Z,8.63
2022-10-29T02:40:01.464Z,7.43
2022-10-29T02:42:29.762Z,6.20
2022-10-29T02:44:57.958Z,7.13
2022-10-29T02:47:26.206Z,7.32
2022-10-29T02:49:54.406Z,7.97
2022-10-29T02:52:24.044Z,7.78
2022-10-29T02:54:52.391Z,9.70
2022-10-29T02:57:20.591Z,8.15
2022-10-29T02:59:48.805Z,6.13
2022-10-29T03:02:17.240Z,7.32
2022-10-29T03:04:45.538Z,6.97
2022-10-29T03:07:13.762Z,9.35
2022-10-29T03:09:43.427Z,7.10
2022-10-29T03:12:11.977Z,6.13
2022-10-29T03:14:40.563Z,9.85
2022-10-29T03:17:08.840Z,8.95
2022-10-29T03:19:37.068Z,8.80
2022-10-29T03:22:05.259Z,9.70
2022-10-29T03:24:33.598Z,8.70
2022-10-29T03:27:03.310Z,8.45
2022-10-29T03:29:31.479Z,8.38
2022-10-29T03:32:00.050Z,12.20
2022-10-29T03:34:28.190Z,10.60
2022-10-29T03:36:56.442Z,9.30
2022-10-29T03:39:24.728Z,7.45
2022-10-29T03:41:52.949Z,9.57
2022-10-29T03:44:22.479Z,8.75
2022-10-29T03:46:50.834Z,11.27
2022-10-29T03:49:19.218Z,10.50
2022-10-29T03:51:47.401Z,9.15
2022-10-29T03:54:15.948Z,8.50
2022-10-29T03:56:44.191Z,7.68
2022-10-29T03:59:12.479Z,7.65
2022-10-29T04:01:42.413Z,8.00
2022-10-29T04:04:11.142Z,8.15
2022-10-29T04:06:39.666Z,7.80
2022-10-29T04:09:08.117Z,6.78
2022-10-29T04:11:36.324Z,6.13
2022-10-29T04:14:04.507Z,6.30
2022-10-29T04:16:32.761Z,5.00
2022-10-29T04:19:02.429Z,7.20
2022-10-29T04:23:25.450Z,7.90
2022-10-29T04:29:55.535Z,6.75
2022-10-29T04:32:23.664Z,6.35
2022-10-29T04:34:53.272Z,6.28
2022-10-29T04:37:21.614Z,4.47
2022-10-29T04:39:49.784Z,9.02
2022-10-29T04:42:18.003Z,7.50
2022-10-29T04:44:46.541Z,7.63
2022-10-29T04:47:15.112Z,6.05
2022-10-29T04:49:43.315Z,6.22
2022-10-29T04:52:13.203Z,8.77
2022-10-29T04:54:41.613Z,6.90
2022-10-29T04:57:09.808Z,6.85
2022-10-29T04:59:38.181Z,6.38
2022-10-29T05:02:06.405Z,5.82
2022-10-29T05:04:34.603Z,5.32
2022-10-29T05:07:02.936Z,7.65
2022-10-29T05:09:32.519Z,5.72
2022-10-29T05:12:00.708Z,7.03
2022-10-29T05:14:29.084Z,5.97
2022-10-29T05:16:57.312Z,6.93
2022-10-29T05:19:25.522Z,8.88
2022-10-29T05:21:53.863Z,6.22
2022-10-29T05:24:22.064Z,7.18
2022-10-29T05:26:51.637Z,6.28
2022-10-29T05:29:19.942Z,6.65
2022-10-29T05:31:48.191Z,4.88
2022-10-29T05:34:16.371Z,6.15
2022-10-29T05:36:44.888Z,11.00
2022-10-29T05:39:13.164Z,6.50
2022-10-29T05:41:41.594Z,8.27
2022-10-29T05:44:11.725Z,6.82
2022-10-29T05:46:39.885Z,6.63
2022-10-29T05:49:08.076Z,6.35
2022-10-29T05:51:36.538Z,7.50
2022-10-29T05:54:04.768Z,8.57
2022-10-29T05:56:32.917Z,7.95
2022-10-29T05:59:01.407Z,6.25
2022-10-29T06:01:31.060Z,7.82
2022-10-29T06:04:01.196Z,8.45
2022-10-29T06:06:29.633Z,6.05
2022-10-29T06:08:57.807Z,7.80
2022-10-29T06:11:26.150Z,9.45
2022-10-29T06:13:56.612Z,7.30
2022-10-29T06:16:24.832Z,7.20
2022-10-29T06:18:54.420Z,11.73
2022-10-29T06:21:22.880Z,12.00
2022-10-29T06:23:54.008Z,10.70
2022-10-29T06:26:22.691Z,10.93
2022-10-29T06:28:51.109Z,11.35
2022-10-29T06:31:19.455Z,9.68
2022-10-29T06:33:47.638Z,9.75
2022-10-29T06:36:17.321Z,12.43
2022-10-29T06:38:45.525Z,11.27
2022-10-29T06:41:13.745Z,10.65
2022-10-29T06:43:42.170Z,12.02
2022-10-29T06:46:10.764Z,14.05
2022-10-29T06:48:38.951Z,14.88
2022-10-29T06:51:07.392Z,14.48
2022-10-29T06:53:36.937Z,11.93
2022-10-29T06:56:05.211Z,18.05
2022-10-29T06:58:33.530Z,11.45
2022-10-29T07:01:02.172Z,13.15
2022-10-29T07:03:30.502Z,12.02
2022-10-29T07:05:59.233Z,10.75
2022-10-29T07:08:28.850Z,14.25
2022-10-29T07:10:58.432Z,14.88
2022-10-29T07:13:27.051Z,13.93
2022-10-29T07:15:55.280Z,12.98
2022-10-29T07:18:23.450Z,15.80
2022-10-29T07:20:51.908Z,13.40
2022-10-29T07:23:20.149Z,16.02
2022-10-29T07:25:48.417Z,19.70
2022-10-29T07:28:20.758Z,15.43
2022-10-29T07:30:49.303Z,15.50
2022-10-29T07:33:17.968Z,11.93
2022-10-29T07:35:46.719Z,15.52
2022-10-29T07:38:15.215Z,17.40
2022-10-29T07:40:48.508Z,13.93
2022-10-29T07:43:18.150Z,13.60
2022-10-29T07:45:47.044Z,16.77
2022-10-29T07:48:15.320Z,14.15
2022-10-29T07:50:43.808Z,15.48
2022-10-29T07:53:12.432Z,16.63
2022-10-29T07:55:40.691Z,18.27
2022-10-29T07:58:11.666Z,12.88
2022-10-29T08:00:42.675Z,18.17
2022-10-29T08:03:12.196Z,17.23
2022-10-29T08:05:42.704Z,16.42
2022-10-29T08:08:11.910Z,14.23
2022-10-29T08:10:40.486Z,14.88
2022-10-29T08:13:08.999Z,20.10
2022-10-29T08:15:37.870Z,15.52
2022-10-29T08:18:13.211Z,18.13
2022-10-29T08:20:41.736Z,15.45
2022-10-29T08:23:10.086Z,16.55
2022-10-29T08:25:41.440Z,16.00
2022-10-29T08:28:10.908Z,13.25
2022-10-29T08:30:39.727Z,16.92
2022-10-29T08:33:08.226Z,17.33
2022-10-29T08:35:37.980Z,13.77
2022-10-29T08:38:06.164Z,15.77
2022-10-29T08:40:39.626Z,15.70
2022-10-29T08:43:20.129Z,14.27
2022-10-29T08:45:49.557Z,17.05
2022-10-29T08:48:23.647Z,14.75
2022-10-29T08:50:54.859Z,15.57
2022-10-29T08:53:30.042Z,16.00
2022-10-29T08:56:02.133Z,13.75
2022-10-29T08:58:32.609Z,16.20
2022-10-29T09:01:01.238Z,14.38
2022-10-29T09:03:29.880Z,16.48
2022-10-29T09:06:05.649Z,14.60
2022-10-29T09:08:40.839Z,18.05
2022-10-29T09:11:15.681Z,15.57
2022-10-29T09:13:48.419Z,16.63
2022-10-29T09:16:30.204Z,13.75
2022-10-29T09:19:04.388Z,13.38
2022-10-29T09:21:35.506Z,11.65
2022-10-29T09:24:08.708Z,14.48
2022-10-29T09:26:44.405Z,15.27
2022-10-29T09:29:20.725Z,12.35
2022-10-29T09:31:50.723Z,13.30
2022-10-29T09:34:20.056Z,16.00
2022-10-29T09:36:50.292Z,11.55
2022-10-29T09:39:31.588Z,12.43
2022-10-29T09:42:03.590Z,15.27
2022-10-29T09:44:36.968Z,14.65
2022-10-29T09:47:09.971Z,11.20
2022-10-29T09:49:44.316Z,14.05
2022-10-29T09:52:17.058Z,16.83
2022-10-29T09:54:45.513Z,14.18
2022-10-29T09:57:19.421Z,17.55
2022-10-29T09:59:49.435Z,12.20
2022-10-29T10:02:24.716Z,14.02
2022-10-29T10:04:56.874Z,18.58
2022-10-29T10:07:26.453Z,15.40
2022-10-29T10:09:56.198Z,13.75
2022-10-29T10:12:25.452Z,17.02
2022-10-29T10:15:07.350Z,13.02
2022-10-29T10:17:54.883Z,8.80
2022-10-29T10:20:28.187Z,10.95
2022-10-29T10:22:58.011Z,11.82
2022-10-29T10:25:37.273Z,12.68
2022-10-29T10:28:06.662Z,15.32
2022-10-29T10:30:34.976Z,12.50
2022-10-29T10:33:24.282Z,14.75
2022-10-29T10:35:53.274Z,12.38
2022-10-29T10:38:23.340Z,13.25
2022-10-29T10:40:58.143Z,13.32
2022-10-29T10:43:27.333Z,11.90
2022-10-29T10:45:57.159Z,13.18
2022-10-29T10:48:30.990Z,15.68
2022-10-29T10:51:17.548Z,10.15
2022-10-29T10:53:47.114Z,13.75
2022-10-29T10:56:19.677Z,15.00
2022-10-29T10:58:51.781Z,17.30
2022-10-29T11:01:22.419Z,9.82
2022-10-29T11:03:52.003Z,10.10
2022-10-29T11:06:22.254Z,13.18
2022-10-29T11:08:54.757Z,10.77
2022-10-29T11:11:24.956Z,10.85
2022-10-29T11:13:53.487Z,10.75
2022-10-29T11:16:22.704Z,8.98
2022-10-29T11:18:54.933Z,11.38
2022-10-29T11:21:26.523Z,11.30
2022-10-29T11:24:00.780Z,7.60
2022-10-29T11:26:31.924Z,11.60
2022-10-29T11:29:02.364Z,7.38
2022-10-29T11:31:33.091Z,8.20
2022-10-29T11:34:04.920Z,12.02
2022-10-29T11:36:35.649Z,8.88
2022-10-29T11:39:10.817Z,13.23
2022-10-29T11:41:42.672Z,11.02
2022-10-29T11:44:13.266Z,12.35
2022-10-29T11:46:46.924Z,14.95
2022-10-29T11:49:26.444Z,10.05
2022-10-29T11:52:02.236Z,12.88
2022-10-29T11:54:38.372Z,8.88
2022-10-29T11:57:10.888Z,9.23
2022-10-29T11:59:44.019Z,16.23
2022-10-29T12:02:23.203Z,7.05
2022-10-29T12:04:55.866Z,8.40
2022-10-29T12:07:31.688Z,12.57
2022-10-29T12:10:11.822Z,12.35
2022-10-29T12:12:45.327Z,10.20
2022-10-29T12:15:17.061Z,7.55
2022-10-29T12:17:49.701Z,14.13
2022-10-29T12:20:24.992Z,10.57
2022-10-29T12:23:03.651Z,8.13
2022-10-29T12:25:39.965Z,10.57
2022-10-29T12:28:19.015Z,10.23
2022-10-29T12:30:50.449Z,9.80
2022-10-29T12:33:22.008Z,8.20
2022-10-29T12:35:52.323Z,7.57
2022-10-29T12:38:26.822Z,7.70
2022-10-29T12:41:01.061Z,7.47
2022-10-29T12:43:30.829Z,11.50
2022-10-29T12:46:19.509Z,8.85
2022-10-29T12:48:51.411Z,7.60
2022-10-29T12:51:21.388Z,6.07
2022-10-29T12:53:59.149Z,6.60
2022-10-29T12:56:31.465Z,9.20
2022-10-29T12:59:00.576Z,6.53
2022-10-29T13:04:36.499Z,6.05
2022-10-29T13:07:08.000Z,6.82
2022-10-29T13:09:36.766Z,6.82
2022-10-29T13:12:09.729Z,7.07
2022-10-29T13:14:40.727Z,9.65
2022-10-29T13:17:24.813Z,7.40
2022-10-29T13:19:54.944Z,7.55
2022-10-29T13:22:52.081Z,9.25
2022-10-29T13:25:30.645Z,10.70
2022-10-29T13:28:00.523Z,10.75
2022-10-29T13:30:29.523Z,7.88
2022-10-29T13:32:58.531Z,9.20
2022-10-29T13:35:40.922Z,6.72
2022-10-29T13:38:15.836Z,9.25
2022-10-29T13:41:02.279Z,8.40
2022-10-29T13:43:32.298Z,9.55
2022-10-29T13:46:30.566Z,8.45
2022-10-29T13:49:00.559Z,9.40
2022-10-29T13:51:38.154Z,7.50
2022-10-29T13:54:08.198Z,7.00
2022-10-29T13:56:40.306Z,10.00
2022-10-29T13:59:14.177Z,5.38
2022-10-29T14:01:43.346Z,8.65
2022-10-29T14:04:19.487Z,11.05
2022-10-29T14:06:48.261Z,10.95
2022-10-29T14:09:19.701Z,9.82
2022-10-29T14:11:53.020Z,5.72
2022-10-29T14:14:25.958Z,6.30
2022-10-29T14:17:10.809Z,7.78
2022-10-29T14:19:39.629Z,10.00
2022-10-29T14:22:17.064Z,7.15
2022-10-29T14:24:45.414Z,5.72
2022-10-29T14:27:15.999Z,8.52
2022-10-29T14:29:45.528Z,12.45
2022-10-29T14:32:15.465Z,11.15
2022-10-29T14:34:45.230Z,8.50
2022-10-29T14:37:16.447Z,9.35
2022-10-29T14:39:58.099Z,9.98
2022-10-29T14:42:29.534Z,8.25
2022-10-29T14:44:59.780Z,8.45
2022-10-29T14:47:33.307Z,8.27
2022-10-29T14:50:02.880Z,7.60
2022-10-29T14:52:32.560Z,9.60
2022-10-29T14:55:03.938Z,10.18
2022-10-29T14:57:34.480Z,6.93
2022-10-29T15:00:05.415Z,10.48
2022-10-29T15:02:38.724Z,8.15
2022-10-29T15:05:22.110Z,13.77
2022-10-29T15:07:50.625Z,8.38
2022-10-29T15:10:23.434Z,9.77
2022-10-29T15:12:52.767Z,12.73
2022-10-29T15:15:29.165Z,9.35
2022-10-29T15:18:00.434Z,13.57
2022-10-29T15:20:33.859Z,8.55
2022-10-29T15:23:02.741Z,7.25
2022-10-29T15:25:32.736Z,9.52
2022-10-29T15:28:01.691Z,6.95
2022-10-29T15:30:32.863Z,11.60
2022-10-29T15:33:01.705Z,9.95
2022-10-29T15:35:30.271Z,10.75
2022-10-29T15:38:00.028Z,8.57
2022-10-29T15:40:28.257Z,9.73
2022-10-29T15:42:57.286Z,7.03
2022-10-29T15:45:29.488Z,7.65
2022-10-29T15:48:00.388Z,6.55
2022-10-29T15:50:31.336Z,7.40
2022-10-29T15:53:03.153Z,8.75
2022-10-29T15:55:32.773Z,16.50
2022-10-29T15:58:02.265Z,11.77
2022-10-29T16:00:30.919Z,13.93
2022-10-29T16:03:02.995Z,8.02
2022-10-29T16:05:31.435Z,12.52
2022-10-29T16:08:02.284Z,11.80
2022-10-29T16:10:30.602Z,10.98
2022-10-29T16:12:59.615Z,10.32
2022-10-29T16:18:02.578Z,7.35
2022-10-29T16:20:30.875Z,8.60
2022-10-29T16:22:59.909Z,6.93
2022-10-29T16:25:28.882Z,10.88
2022-10-29T16:27:57.479Z,8.27
2022-10-29T16:30:25.931Z,9.57
2022-10-29T16:32:54.680Z,10.38
2022-10-29T16:35:25.656Z,7.93
2022-10-29T16:37:54.707Z,6.97
2022-10-29T16:40:24.171Z,7.72
2022-10-29T16:42:54.830Z,8.18
2022-10-29T16:45:24.500Z,7.85
2022-10-29T16:47:52.939Z,10.68
2022-10-29T16:50:22.147Z,9.90
2022-10-29T16:52:57.525Z,11.50
2022-10-29T16:55:25.875Z,7.43
2022-10-29T16:57:54.391Z,11.13
2022-10-29T17:00:22.879Z,8.02
2022-10-29T17:02:51.083Z,7.85
2022-10-29T17:05:19.587Z,9.85
2022-10-29T17:07:47.841Z,11.07
2022-10-29T17:10:17.558Z,12.10
2022-10-29T17:12:45.807Z,11.27
2022-10-29T17:15:14.083Z,13.05
2022-10-29T17:17:45.588Z,10.05
2022-10-29T17:20:18.525Z,7.07
2022-10-29T17:22:46.855Z,11.30
2022-10-29T17:25:15.275Z,8.80
2022-10-29T17:27:44.922Z,7.85
2022-10-29T17:30:18.597Z,8.65
2022-10-29T17:33:07.909Z,14.00
2022-10-29T17:35:36.556Z,13.52
2022-10-29T17:38:04.846Z,12.30
2022-10-29T17:40:33.018Z,15.30
2022-10-29T17:43:02.602Z,16.17
2022-10-29T17:45:30.828Z,11.07
2022-10-29T17:48:00.257Z,12.30
2022-10-29T17:50:32.050Z,15.32
2022-10-29T17:53:03.961Z,9.05
2022-10-29T17:55:32.246Z,11.35
2022-10-29T17:58:27.995Z,10.77
2022-10-29T18:01:07.051Z,15.38
2022-10-29T18:03:36.040Z,7.97
2022-10-29T18:06:05.596Z,11.30
2022-10-29T18:08:35.966Z,9.27
2022-10-29T18:11:04.982Z,11.70
2022-10-29T18:13:34.292Z,8.80
2022-10-29T18:16:04.141Z,11.13
2022-10-29T18:18:47.995Z,7.20
2022-10-29T18:21:23.964Z,9.15
2022-10-29T18:23:52.648Z,12.23
2022-10-29T18:26:22.099Z,11.43
2022-10-29T18:28:50.372Z,9.05
2022-10-29T18:31:19.981Z,11.07
2022-10-29T18:33:48.605Z,8.93
2022-10-29T18:36:17.041Z,9.68
2022-10-29T18:38:45.287Z,7.43
2022-10-29T18:41:13.489Z,8.77
2022-10-29T18:43:41.830Z,9.63
2022-10-29T18:46:11.785Z,10.75
2022-10-29T18:48:42.230Z,11.18
2022-10-29T18:51:15.462Z,7.68
2022-10-29T18:53:46.725Z,7.28
2022-10-29T18:56:16.176Z,6.10
2022-10-29T18:58:44.620Z,10.13
2022-10-29T19:01:13.626Z,10.68
2022-10-29T19:03:44.483Z,5.38
2022-10-29T19:06:15.625Z,10.95
2022-10-29T19:08:46.059Z,8.88
2022-10-29T19:11:15.572Z,11.23
2022-10-29T19:13:43.840Z,10.45
2022-10-29T19:16:13.993Z,13.60
2022-10-29T19:18:44.254Z,8.23
2022-10-29T19:21:13.477Z,6.68
2022-10-29T19:23:42.243Z,10.63
2022-10-29T19:26:11.744Z,9.32
2022-10-29T19:28:40.631Z,12.00
2022-10-29T19:31:09.748Z,7.07
2022-10-29T19:33:38.387Z,8.73
2022-10-29T19:36:09.011Z,7.85
2022-10-29T19:38:37.573Z,7.78
2022-10-29T19:41:05.831Z,6.63
2022-10-29T19:43:34.141Z,10.00
2022-10-29T19:46:02.481Z,9.80
2022-10-29T19:48:30.772Z,6.20
2022-10-29T19:50:59.016Z,10.75
2022-10-29T19:53:29.048Z,13.13
2022-10-29T19:56:00.029Z,11.50
2022-10-29T19:58:31.231Z,8.52
2022-10-29T20:01:04.780Z,8.30
2022-10-29T20:03:33.247Z,11.15
2022-10-29T20:06:01.418Z,10.40
2022-10-29T20:08:31.228Z,12.93
2022-10-29T20:11:00.727Z,10.52
2022-10-29T20:13:38.599Z,11.10
2022-10-29T20:16:17.463Z,7.07
2022-10-29T20:18:45.925Z,8.52
2022-10-29T20:21:14.596Z,9.23
2022-10-29T20:23:47.125Z,10.30
2022-10-29T20:26:18.548Z,8.52
2022-10-29T20:28:46.816Z,8.82
2022-10-29T20:31:27.831Z,9.10
2022-10-29T20:33:59.274Z,8.80
2022-10-29T20:36:30.885Z,6.25
2022-10-29T20:39:01.135Z,8.70
2022-10-29T20:41:29.584Z,6.32
2022-10-29T20:43:58.637Z,14.65
2022-10-29T20:46:27.126Z,9.45
2022-10-29T20:48:55.439Z,15.40
2022-10-29T20:51:23.998Z,13.27
2022-10-29T20:53:52.393Z,9.63
2022-10-29T20:56:22.904Z,7.00
2022-10-29T20:58:51.119Z,8.63
2022-10-29T21:01:20.995Z,9.77
2022-10-29T21:03:57.658Z,8.38
2022-10-29T21:06:26.140Z,10.93
2022-10-29T21:08:54.490Z,8.82
2022-10-29T21:11:24.973Z,8.40
2022-10-29T21:13:53.402Z,9.80
2022-10-29T21:16:22.371Z,13.57
2022-10-29T21:18:51.307Z,9.88
2022-10-29T21:21:20.153Z,8.25
2022-10-29T21:23:48.364Z,9.77
2022-10-29T21:26:17.236Z,7.65
2022-10-29T21:28:47.184Z,9.07
2022-10-29T21:31:15.836Z,13.82
2022-10-29T21:33:44.064Z,8.48
2022-10-29T21:36:14.018Z,11.45
2022-10-29T21:38:42.737Z,12.30
2022-10-29T21:41:11.041Z,13.63
2022-10-29T21:43:39.857Z,8.77
2022-10-29T21:46:09.707Z,7.43
2022-10-29T21:48:40.272Z,8.80
2022-10-29T21:51:09.598Z,9.77
2022-10-29T21:53:37.766Z,10.43
2022-10-29T21:56:07.164Z,9.13
2022-10-29T21:58:38.767Z,11.82
2022-10-29T22:01:07.865Z,10.02
2022-10-29T22:03:40.662Z,12.48
2022-10-29T22:06:09.824Z,10.32
2022-10-29T22:08:38.170Z,10.27
2022-10-29T22:11:06.971Z,8.30
2022-10-29T22:13:35.747Z,10.85
2022-10-29T22:16:04.565Z,13.35
2022-10-29T22:18:33.440Z,9.63
2022-10-29T22:21:07.439Z,9.27
2022-10-29T22:23:35.680Z,10.00
2022-10-29T22:26:03.842Z,16.83
2022-10-29T22:28:32.029Z,24.27
2022-10-29T22:31:01.132Z,38.65
2022-10-29T22:33:29.461Z,46.83
2022-10-29T22:35:58.020Z,51.00
2022-10-29T22:38:27.659Z,47.97
2022-10-29T22:40:56.042Z,42.95
2022-10-29T22:43:24.215Z,32.15
2022-10-29T22:45:52.395Z,30.58
2022-10-29T22:48:20.784Z,25.30
2022-10-29T22:50:48.952Z,21.52
2022-10-29T22:53:17.123Z,17.40
2022-10-29T22:55:52.912Z,16.77
2022-10-29T22:58:21.124Z,14.00
2022-10-29T23:00:49.611Z,10.90
2022-10-29T23:03:17.823Z,14.40
2022-10-29T23:05:57.265Z,12.10
2022-10-29T23:08:25.674Z,13.05
2022-10-29T23:10:55.334Z,10.20
2022-10-29T23:13:23.567Z,12.02
2022-10-29T23:15:52.545Z,11.10
2022-10-29T23:18:20.838Z,13.27
2022-10-29T23:20:49.028Z,12.85
2022-10-29T23:23:17.323Z,11.65
2022-10-29T23:25:45.502Z,11.02
2022-10-29T23:28:15.023Z,10.85
2022-10-29T23:30:43.365Z,9.68
2022-10-29T23:33:11.773Z,11.48
2022-10-29T23:35:39.931Z,12.52
2022-10-29T23:38:08.333Z,9.80
2022-10-29T23:40:36.500Z,10.00
2022-10-29T23:43:04.757Z,11.63
2022-10-29T23:45:34.461Z,13.27
2022-10-29T23:48:02.767Z,11.20
2022-10-29T23:50:30.932Z,7.85
2022-10-29T23:52:59.495Z,7.53
2022-10-29T23:55:27.817Z,11.90
2022-10-29T23:57:56.250Z,8.73
